createdAt,value
2019-04-25T00:01:45.021Z,9.07
2019-04-25T00:04:15.966Z,5.77
2019-04-25T00:06:46.865Z,5.03
2019-04-25T00:09:21.893Z,5.00
2019-04-25T00:11:52.943Z,6.17
2019-04-25T00:14:25.831Z,4.85
2019-04-25T00:16:58.198Z,8.00
2019-04-25T00:19:29.119Z,6.83
2019-04-25T00:22:05.425Z,6.53
2019-04-25T00:24:59.112Z,7.03
2019-04-25T00:27:32.887Z,6.93
2019-04-25T00:30:03.880Z,6.90
2019-04-25T00:32:34.467Z,8.07
2019-04-25T00:35:06.491Z,7.70
2019-04-25T00:37:37.450Z,7.93
2019-04-25T00:40:08.430Z,10.37
2019-04-25T00:42:42.807Z,6.13
2019-04-25T00:45:14.164Z,8.00
2019-04-25T00:47:45.702Z,7.33
2019-04-25T00:50:16.645Z,6.03
2019-04-25T00:52:48.318Z,9.63
2019-04-25T00:55:28.280Z,5.70
2019-04-25T00:57:56.198Z,8.70
2019-04-25T01:00:51.072Z,6.00
2019-04-25T01:03:25.910Z,6.90
2019-04-25T01:05:56.809Z,7.07
2019-04-25T01:08:28.183Z,7.30
2019-04-25T01:10:58.996Z,6.00
2019-04-25T01:13:32.097Z,6.40
2019-04-25T01:16:04.118Z,6.70
2019-04-25T01:18:35.433Z,5.63
2019-04-25T01:21:07.232Z,8.00
2019-04-25T01:23:38.570Z,5.15
2019-04-25T01:26:09.671Z,6.97
2019-04-25T01:28:40.581Z,6.70
2019-04-25T01:31:14.664Z,6.67
2019-04-25T01:33:46.660Z,7.50
2019-04-25T01:36:34.545Z,7.00
2019-04-25T01:39:11.907Z,8.08
2019-04-25T01:41:56.081Z,7.15
2019-04-25T01:44:31.309Z,8.30
2019-04-25T01:47:01.828Z,6.70
2019-04-25T01:49:33.937Z,6.40
2019-04-25T01:52:04.997Z,6.90
2019-04-25T01:54:35.800Z,7.77
2019-04-25T01:57:09.107Z,7.23
2019-04-25T01:59:39.991Z,6.12
2019-04-25T02:02:14.084Z,6.37
2019-04-25T02:04:45.255Z,5.87
2019-04-25T02:07:16.381Z,7.13
2019-04-25T02:09:47.267Z,8.00
2019-04-25T02:12:38.497Z,6.77
2019-04-25T02:15:09.222Z,7.50
2019-04-25T02:17:40.072Z,8.13
2019-04-25T02:20:10.755Z,5.63
2019-04-25T02:22:41.635Z,4.83
2019-04-25T02:25:13.318Z,6.00
2019-04-25T02:27:44.430Z,8.90
2019-04-25T02:30:16.621Z,4.97
2019-04-25T02:32:48.273Z,7.03
2019-04-25T02:35:19.317Z,5.93
2019-04-25T02:37:50.886Z,7.53
2019-04-25T02:40:23.843Z,7.73
2019-04-25T02:42:58.164Z,6.50
2019-04-25T02:45:45.077Z,8.93
2019-04-25T02:48:56.178Z,10.63
2019-04-25T02:51:34.975Z,12.17
2019-04-25T02:54:08.144Z,11.90
2019-04-25T02:56:39.276Z,11.43
2019-04-25T02:59:10.211Z,9.30
2019-04-25T03:01:44.296Z,11.33
2019-04-25T03:04:15.987Z,8.23
2019-04-25T03:06:47.956Z,12.80
2019-04-25T03:09:18.754Z,12.47
2019-04-25T03:11:50.287Z,17.95
2019-04-25T03:14:21.212Z,14.83
2019-04-25T03:16:54.345Z,9.68
2019-04-25T03:19:34.269Z,11.77
2019-04-25T03:22:09.326Z,18.53
2019-04-25T03:24:39.112Z,10.72
2019-04-25T03:27:10.239Z,12.40
2019-04-25T03:29:40.753Z,10.20
2019-04-25T03:32:16.501Z,13.40
2019-04-25T03:34:44.681Z,12.17
2019-04-25T03:37:15.809Z,10.90
2019-04-25T03:39:46.900Z,9.37
2019-04-25T03:42:17.656Z,13.80
2019-04-25T03:44:48.427Z,10.27
2019-04-25T03:47:19.384Z,14.70
2019-04-25T03:49:50.478Z,13.50
2019-04-25T03:52:21.443Z,17.57
2019-04-25T03:54:53.452Z,19.87
2019-04-25T03:57:24.841Z,16.93
2019-04-25T03:59:55.723Z,12.30
2019-04-25T04:02:28.900Z,18.45
2019-04-25T04:05:00.035Z,18.67
2019-04-25T04:07:31.048Z,14.97
2019-04-25T04:10:04.545Z,13.23
2019-04-25T04:12:35.717Z,15.93
2019-04-25T04:15:07.084Z,13.57
2019-04-25T04:17:49.146Z,17.90
2019-04-25T04:20:31.523Z,11.40
2019-04-25T04:23:20.327Z,10.28
2019-04-25T04:25:54.536Z,12.90
2019-04-25T04:28:25.999Z,12.70
2019-04-25T04:30:57.259Z,11.80
2019-04-25T04:33:32.379Z,16.80
2019-04-25T04:36:03.895Z,15.97
2019-04-25T04:38:34.721Z,12.50
2019-04-25T04:41:05.505Z,13.27
2019-04-25T04:43:36.873Z,11.60
2019-04-25T04:46:14.173Z,12.57
2019-04-25T04:48:45.506Z,14.73
2019-04-25T04:51:16.977Z,12.90
2019-04-25T04:53:48.481Z,15.87
2019-04-25T04:56:21.059Z,21.23
2019-04-25T04:58:53.796Z,19.55
2019-04-25T05:01:26.562Z,16.40
2019-04-25T05:04:05.786Z,18.10
2019-04-25T05:06:44.201Z,16.40
2019-04-25T05:09:18.421Z,18.50
2019-04-25T05:11:50.180Z,22.93
2019-04-25T05:14:21.119Z,17.20
2019-04-25T05:16:53.261Z,15.80
2019-04-25T05:19:24.618Z,13.73
2019-04-25T05:22:00.385Z,17.27
2019-04-25T05:24:43.867Z,18.67
2019-04-25T05:27:31.258Z,18.60
2019-04-25T05:29:47.963Z,17.87
2019-04-25T05:32:19.209Z,19.17
2019-04-25T05:34:53.260Z,21.97
2019-04-25T05:37:26.414Z,20.73
2019-04-25T05:40:01.397Z,19.30
2019-04-25T05:43:10.050Z,28.07
2019-04-25T05:45:41.955Z,29.90
2019-04-25T05:48:14.280Z,23.63
2019-04-25T05:50:45.677Z,26.87
2019-04-25T05:53:16.582Z,22.77
2019-04-25T05:55:47.430Z,21.87
2019-04-25T05:58:18.547Z,16.10
2019-04-25T06:00:50.135Z,20.90
2019-04-25T06:03:24.543Z,24.60
2019-04-25T06:05:54.588Z,22.07
2019-04-25T06:08:27.977Z,20.67
2019-04-25T06:11:18.230Z,21.13
2019-04-25T06:13:54.679Z,21.60
2019-04-25T06:16:33.383Z,22.97
2019-04-25T06:19:16.368Z,26.83
2019-04-25T06:21:44.584Z,25.57
2019-04-25T06:24:30.264Z,26.83
2019-04-25T06:27:24.276Z,26.57
2019-04-25T06:30:04.410Z,24.60
2019-04-25T06:32:35.588Z,26.43
2019-04-25T06:35:07.628Z,27.48
2019-04-25T06:37:38.327Z,23.63
2019-04-25T06:40:10.063Z,24.23
2019-04-25T06:42:40.864Z,22.47
2019-04-25T06:45:26.682Z,23.10
2019-04-25T06:48:04.197Z,21.37
2019-04-25T06:50:35.433Z,22.87
2019-04-25T06:53:06.713Z,27.23
2019-04-25T06:55:37.476Z,21.17
2019-04-25T06:58:15.331Z,21.20
2019-04-25T07:01:00.523Z,23.03
2019-04-25T07:03:31.527Z,24.10
2019-04-25T07:06:03.330Z,27.53
2019-04-25T07:08:35.617Z,22.40
2019-04-25T07:11:06.564Z,36.10
2019-04-25T07:13:38.878Z,23.17
2019-04-25T07:16:13.415Z,23.87
2019-04-25T07:18:45.687Z,28.75
2019-04-25T07:21:17.282Z,23.70
2019-04-25T07:23:48.410Z,30.57
2019-04-25T07:26:34.970Z,26.65
2019-04-25T07:29:14.495Z,25.70
2019-04-25T07:31:53.949Z,23.23
2019-04-25T07:34:26.515Z,26.73
2019-04-25T07:37:00.015Z,24.90
2019-04-25T07:39:32.502Z,31.27
2019-04-25T07:42:04.563Z,28.60
2019-04-25T07:44:49.295Z,27.40
2019-04-25T07:47:08.959Z,23.55
2019-04-25T07:49:39.735Z,24.77
2019-04-25T07:52:11.662Z,27.67
2019-04-25T07:54:43.986Z,32.93
2019-04-25T07:57:15.360Z,26.15
2019-04-25T07:59:45.951Z,30.33
2019-04-25T08:02:19.765Z,28.83
2019-04-25T08:04:50.555Z,25.43
2019-04-25T08:07:21.551Z,25.07
2019-04-25T08:09:54.225Z,33.18
2019-04-25T08:12:25.291Z,35.30
2019-04-25T08:15:04.046Z,40.10
2019-04-25T08:17:54.025Z,32.53
2019-04-25T08:20:26.196Z,25.88
2019-04-25T08:22:58.997Z,27.70
2019-04-25T08:25:33.475Z,23.85
2019-04-25T08:28:04.659Z,18.10
2019-04-25T08:30:36.644Z,21.87
2019-04-25T08:33:08.103Z,25.50
2019-04-25T08:35:38.759Z,26.97
2019-04-25T08:38:09.698Z,20.23
2019-04-25T08:40:40.487Z,15.53
2019-04-25T08:43:11.747Z,21.27
2019-04-25T08:45:44.266Z,21.05
2019-04-25T08:48:15.591Z,17.57
2019-04-25T08:50:59.144Z,18.20
2019-04-25T08:53:35.655Z,12.93
2019-04-25T08:56:21.360Z,19.03
2019-04-25T08:59:08.096Z,21.30
2019-04-25T09:02:04.166Z,20.30
2019-04-25T09:04:42.997Z,15.35
2019-04-25T09:07:20.609Z,12.90
2019-04-25T09:09:53.493Z,9.77
2019-04-25T09:12:24.184Z,17.10
2019-04-25T09:14:55.107Z,8.00
2019-04-25T09:17:25.851Z,12.67
2019-04-25T09:19:57.443Z,11.20
2019-04-25T09:22:28.652Z,12.23
2019-04-25T09:24:59.740Z,11.63
2019-04-25T09:27:30.790Z,9.07
2019-04-25T09:30:03.906Z,11.63
2019-04-25T09:32:35.712Z,8.77
2019-04-25T09:35:07.076Z,10.63
2019-04-25T09:37:38.733Z,11.67
2019-04-25T09:40:14.629Z,6.47
2019-04-25T09:42:46.362Z,10.57
2019-04-25T09:45:36.125Z,7.00
2019-04-25T09:48:17.125Z,8.18
2019-04-25T09:50:51.529Z,11.27
2019-04-25T09:53:23.876Z,9.93
2019-04-25T09:56:04.169Z,8.07
2019-04-25T09:58:50.334Z,12.57
2019-04-25T10:01:23.905Z,10.87
2019-04-25T10:03:55.236Z,10.97
2019-04-25T10:06:26.757Z,10.48
2019-04-25T10:08:58.663Z,10.70
2019-04-25T10:11:33.509Z,8.83
2019-04-25T10:14:37.545Z,11.55
2019-04-25T10:17:13.718Z,13.27
2019-04-25T10:19:45.618Z,12.70
2019-04-25T10:22:16.217Z,9.20
2019-04-25T10:24:59.956Z,11.08
2019-04-25T10:27:21.746Z,8.10
2019-04-25T10:29:57.143Z,9.67
2019-04-25T10:32:30.103Z,9.27
2019-04-25T10:35:01.119Z,12.82
2019-04-25T10:37:33.942Z,11.47
2019-04-25T10:40:08.663Z,9.77
2019-04-25T10:42:40.660Z,7.13
2019-04-25T10:45:23.137Z,9.07
2019-04-25T10:47:51.796Z,7.67
2019-04-25T10:50:24.943Z,10.78
2019-04-25T10:52:55.895Z,8.97
2019-04-25T10:55:26.805Z,5.62
2019-04-25T10:57:58.494Z,7.53
2019-04-25T11:00:39.833Z,6.43
2019-04-25T11:03:28.128Z,5.55
2019-04-25T11:05:58.887Z,6.00
2019-04-25T11:08:29.464Z,6.80
2019-04-25T11:11:00.611Z,8.30
2019-04-25T11:13:31.525Z,15.13
2019-04-25T11:16:03.532Z,10.83
2019-04-25T11:18:34.610Z,5.73
2019-04-25T11:21:06.137Z,7.20
2019-04-25T11:23:37.556Z,7.70
2019-04-25T11:26:08.895Z,10.85
2019-04-25T11:28:40.619Z,7.60
2019-04-25T11:31:15.852Z,5.60
2019-04-25T11:33:46.622Z,9.50
2019-04-25T11:36:18.000Z,8.90
2019-04-25T11:39:04.183Z,13.70
2019-04-25T11:41:34.798Z,9.37
2019-04-25T11:44:06.235Z,8.10
2019-04-25T11:46:39.261Z,9.93
2019-04-25T11:49:10.172Z,9.10
2019-04-25T11:51:40.773Z,8.33
2019-04-25T11:54:11.644Z,7.63
2019-04-25T11:56:45.067Z,5.15
2019-04-25T11:59:23.547Z,6.27
2019-04-25T12:02:10.225Z,6.97
2019-04-25T12:04:42.690Z,5.37
2019-04-25T12:07:15.387Z,6.67
2019-04-25T12:09:47.099Z,6.08
2019-04-25T12:12:19.497Z,5.73
2019-04-25T12:14:51.604Z,5.92
2019-04-25T12:17:29.371Z,8.57
2019-04-25T12:20:03.851Z,14.67
2019-04-25T12:22:35.365Z,7.60
2019-04-25T12:25:09.421Z,6.92
2019-04-25T12:27:45.270Z,8.47
2019-04-25T12:30:17.011Z,7.23
2019-04-25T12:32:55.250Z,8.10
2019-04-25T12:35:27.472Z,7.70
2019-04-25T12:37:59.336Z,8.33
2019-04-25T12:40:30.675Z,7.10
2019-04-25T12:43:03.175Z,9.63
2019-04-25T12:45:53.370Z,6.50
2019-04-25T12:48:24.713Z,7.33
2019-04-25T12:50:56.657Z,5.93
2019-04-25T12:53:27.483Z,4.80
2019-04-25T12:55:58.622Z,5.50
2019-04-25T12:58:33.303Z,5.60
2019-04-25T13:01:08.073Z,6.13
2019-04-25T13:03:41.836Z,6.90
2019-04-25T13:06:21.395Z,6.10
2019-04-25T13:08:54.237Z,5.30
2019-04-25T13:11:25.910Z,5.95
2019-04-25T13:13:56.910Z,6.70
2019-04-25T13:16:27.439Z,4.27
2019-04-25T13:19:09.363Z,8.93
2019-04-25T13:21:31.090Z,8.10
2019-04-25T13:24:08.465Z,9.85
2019-04-25T13:26:46.391Z,7.50
2019-04-25T13:29:45.083Z,8.07
2019-04-25T13:32:50.722Z,9.97
2019-04-25T13:35:29.151Z,7.77
2019-04-25T13:38:01.346Z,8.03
2019-04-25T13:40:32.628Z,11.70
2019-04-25T13:43:05.237Z,8.73
2019-04-25T13:45:37.854Z,7.53
2019-04-25T13:48:09.281Z,8.63
2019-04-25T13:50:40.628Z,10.20
2019-04-25T13:53:13.193Z,10.77
2019-04-25T13:55:44.416Z,13.73
2019-04-25T13:58:15.451Z,9.10
2019-04-25T14:00:49.832Z,10.32
2019-04-25T14:03:21.775Z,11.93
2019-04-25T14:05:53.978Z,7.67
2019-04-25T14:08:33.463Z,10.53
2019-04-25T14:11:06.562Z,7.80
2019-04-25T14:13:39.135Z,11.60
2019-04-25T14:16:34.570Z,9.43
2019-04-25T14:19:25.650Z,12.60
2019-04-25T14:21:59.160Z,11.17
2019-04-25T14:24:31.077Z,9.43
2019-04-25T14:27:03.686Z,9.83
2019-04-25T14:29:34.857Z,8.70
2019-04-25T14:32:07.023Z,9.77
2019-04-25T14:34:37.955Z,13.70
2019-04-25T14:37:08.705Z,16.67
2019-04-25T14:39:39.240Z,9.97
2019-04-25T14:42:13.869Z,12.27
2019-04-25T14:44:44.990Z,11.45
2019-04-25T14:47:16.073Z,11.17
2019-04-25T14:49:46.917Z,13.23
2019-04-25T14:52:17.976Z,17.37
2019-04-25T14:54:57.795Z,10.97
2019-04-25T14:57:30.159Z,12.43
2019-04-25T15:00:03.137Z,9.27
2019-04-25T15:02:34.206Z,11.57
2019-04-25T15:05:05.569Z,8.87
2019-04-25T15:07:36.363Z,9.87
2019-04-25T15:10:11.002Z,14.97
2019-04-25T15:12:42.124Z,11.10
2019-04-25T15:15:33.771Z,13.97
2019-04-25T15:18:23.417Z,10.27
2019-04-25T15:20:56.000Z,11.55
2019-04-25T15:23:27.328Z,13.60
2019-04-25T15:25:58.427Z,12.27
2019-04-25T15:28:32.050Z,11.77
2019-04-25T15:31:02.632Z,10.87
2019-04-25T15:33:33.223Z,10.10
2019-04-25T15:36:23.648Z,11.73
2019-04-25T15:39:27.515Z,16.33
2019-04-25T15:42:06.379Z,11.07
2019-04-25T15:44:55.907Z,11.38
2019-04-25T15:47:28.267Z,16.30
2019-04-25T15:49:58.896Z,15.40
2019-04-25T15:52:29.868Z,11.25
2019-04-25T15:55:07.512Z,11.77
2019-04-25T15:57:34.505Z,18.20
2019-04-25T16:00:08.316Z,14.38
2019-04-25T16:02:39.140Z,19.47
2019-04-25T16:05:10.238Z,13.77
2019-04-25T16:07:41.217Z,13.07
2019-04-25T16:10:12.305Z,16.33
2019-04-25T16:12:48.339Z,9.97
2019-04-25T16:15:19.850Z,14.57
2019-04-25T16:17:52.031Z,13.03
2019-04-25T16:20:24.378Z,17.10
2019-04-25T16:22:55.512Z,13.23
2019-04-25T16:25:26.967Z,22.27
2019-04-25T16:27:57.682Z,15.33
2019-04-25T16:30:32.457Z,13.40
2019-04-25T16:33:04.003Z,16.77
2019-04-25T16:35:35.487Z,14.47
2019-04-25T16:38:08.368Z,12.47
2019-04-25T16:40:39.067Z,14.37
2019-04-25T16:43:12.301Z,16.23
2019-04-25T16:45:43.195Z,18.73
2019-04-25T16:48:15.118Z,17.67
2019-04-25T16:50:46.091Z,11.33
2019-04-25T16:53:17.379Z,15.75
2019-04-25T16:55:48.539Z,14.73
2019-04-25T16:58:19.519Z,12.33
2019-04-25T17:01:05.431Z,14.47
2019-04-25T17:03:37.776Z,12.78
2019-04-25T17:06:08.787Z,15.73
2019-04-25T17:08:40.227Z,14.33
2019-04-25T17:11:11.902Z,15.57
2019-04-25T17:13:48.621Z,13.20
2019-04-25T17:16:50.940Z,25.62
2019-04-25T17:19:32.785Z,11.57
2019-04-25T17:22:04.056Z,14.87
2019-04-25T17:24:35.439Z,15.33
2019-04-25T17:27:10.776Z,12.28
2019-04-25T17:29:44.669Z,14.80
2019-04-25T17:32:50.391Z,12.73
2019-04-25T17:35:26.061Z,16.80
2019-04-25T17:38:12.730Z,11.53
2019-04-25T17:40:56.506Z,18.33
2019-04-25T17:43:29.026Z,15.27
2019-04-25T17:45:59.654Z,15.30
2019-04-25T17:48:30.314Z,17.30
2019-04-25T17:51:02.960Z,16.37
2019-04-25T17:53:34.406Z,15.87
2019-04-25T17:56:05.710Z,21.62
2019-04-25T17:58:36.967Z,21.02
2019-04-25T18:01:09.031Z,16.17
2019-04-25T18:03:39.926Z,21.83
2019-04-25T18:06:10.869Z,30.60
2019-04-25T18:08:41.813Z,21.03
2019-04-25T18:11:12.995Z,28.80
2019-04-25T18:13:44.995Z,26.77
2019-04-25T18:16:24.251Z,29.57
2019-04-25T18:19:13.892Z,24.70
2019-04-25T18:21:45.203Z,24.80
2019-04-25T18:24:39.090Z,21.30
2019-04-25T18:27:18.726Z,17.77
2019-04-25T18:29:49.820Z,17.60
2019-04-25T18:32:28.373Z,15.60
2019-04-25T18:35:31.911Z,21.23
2019-04-25T18:38:16.376Z,34.37
2019-04-25T18:41:09.909Z,19.17
2019-04-25T18:43:49.506Z,21.83
2019-04-25T18:46:24.699Z,20.50
2019-04-25T18:48:55.485Z,19.20
2019-04-25T18:51:26.386Z,16.60
2019-04-25T18:54:28.162Z,13.87
2019-04-25T18:57:23.773Z,15.63
2019-04-25T19:00:16.287Z,21.57
2019-04-25T19:03:05.639Z,18.60
2019-04-25T19:05:58.579Z,18.70
2019-04-25T19:08:30.112Z,17.60
2019-04-25T19:11:01.330Z,18.37
2019-04-25T19:13:34.376Z,15.05
2019-04-25T19:16:06.149Z,17.63
2019-04-25T19:18:37.215Z,18.57
2019-04-25T19:21:08.067Z,19.90
2019-04-25T19:23:40.511Z,16.10
2019-04-25T19:26:14.028Z,14.23
2019-04-25T19:28:46.890Z,16.13
2019-04-25T19:31:17.908Z,18.30
2019-04-25T19:33:48.721Z,18.20
2019-04-25T19:36:21.459Z,15.67
2019-04-25T19:38:52.530Z,12.63
2019-04-25T19:41:35.810Z,14.67
2019-04-25T19:44:14.338Z,21.03
2019-04-25T19:46:49.198Z,17.23
2019-04-25T19:49:20.367Z,17.03
2019-04-25T19:51:51.964Z,23.23
2019-04-25T19:54:23.301Z,18.17
2019-04-25T19:56:56.383Z,15.20
2019-04-25T19:59:26.786Z,15.97
2019-04-25T20:02:00.018Z,18.42
2019-04-25T20:04:54.198Z,16.80
2019-04-25T20:07:46.643Z,17.13
2019-04-25T20:10:31.118Z,13.88
2019-04-25T20:13:01.939Z,15.10
2019-04-25T20:15:34.120Z,18.65
2019-04-25T20:18:05.045Z,15.53
2019-04-25T20:20:36.720Z,17.23
2019-04-25T20:23:08.084Z,18.83
2019-04-25T20:25:39.567Z,16.07
2019-04-25T20:28:10.544Z,13.30
2019-04-25T20:30:41.481Z,15.47
2019-04-25T20:33:12.414Z,16.05
2019-04-25T20:35:46.413Z,15.50
2019-04-25T20:38:23.710Z,14.27
2019-04-25T20:40:58.815Z,16.43
2019-04-25T20:43:30.139Z,11.40
2019-04-25T20:46:01.503Z,12.07
2019-04-25T20:48:34.513Z,12.90
2019-04-25T20:51:11.574Z,16.07
2019-04-25T20:53:46.477Z,14.63
2019-04-25T20:56:18.582Z,16.80
2019-04-25T20:58:52.004Z,21.03
2019-04-25T21:01:24.080Z,21.15
2019-04-25T21:03:56.186Z,17.40
2019-04-25T21:06:31.847Z,19.93
2019-04-25T21:09:02.880Z,16.23
2019-04-25T21:11:34.133Z,15.35
2019-04-25T21:14:26.900Z,16.17
2019-04-25T21:17:04.644Z,15.77
2019-04-25T21:19:38.280Z,17.87
2019-04-25T21:22:09.195Z,20.43
2019-04-25T21:24:40.334Z,19.20
2019-04-25T21:27:11.169Z,18.50
2019-04-25T21:29:42.369Z,16.17
2019-04-25T21:32:14.331Z,13.32
2019-04-25T21:34:45.756Z,20.57
2019-04-25T21:37:17.022Z,17.60
2019-04-25T21:39:56.687Z,15.27
2019-04-25T21:42:38.187Z,17.97
2019-04-25T21:45:09.773Z,24.47
2019-04-25T21:47:41.358Z,35.47
2019-04-25T21:50:12.276Z,23.73
2019-04-25T21:52:44.587Z,30.93
2019-04-25T21:55:15.632Z,28.73
2019-04-25T21:57:46.986Z,24.23
2019-04-25T22:00:37.266Z,17.33
2019-04-25T22:03:08.683Z,23.27
2019-04-25T22:05:40.195Z,19.90
2019-04-25T22:08:11.143Z,15.03
2019-04-25T22:10:41.724Z,18.97
2019-04-25T22:13:17.487Z,29.57
2019-04-25T22:15:46.666Z,21.73
2019-04-25T22:18:19.998Z,18.43
2019-04-25T22:20:50.786Z,19.50
2019-04-25T22:23:22.200Z,20.60
2019-04-25T22:25:53.818Z,15.00
2019-04-25T22:28:25.021Z,18.10
2019-04-25T22:30:59.185Z,14.77
2019-04-25T22:33:52.150Z,22.80
2019-04-25T22:36:24.642Z,24.07
2019-04-25T22:39:13.523Z,15.43
2019-04-25T22:41:46.797Z,11.93
2019-04-25T22:44:21.182Z,10.75
2019-04-25T22:46:52.788Z,11.53
2019-04-25T22:49:23.924Z,15.20
2019-04-25T22:51:54.825Z,13.13
2019-04-25T22:54:27.899Z,12.33
2019-04-25T22:56:58.649Z,13.87
2019-04-25T22:59:29.941Z,12.83
2019-04-25T23:02:15.007Z,12.80
2019-04-25T23:05:04.808Z,13.20
2019-04-25T23:07:26.454Z,13.00
2019-04-25T23:09:57.324Z,18.83
2019-04-25T23:12:28.277Z,13.60
2019-04-25T23:14:59.032Z,16.60
2019-04-25T23:17:29.907Z,13.93
2019-04-25T23:20:03.377Z,13.25
2019-04-25T23:22:35.354Z,10.60
2019-04-25T23:25:12.138Z,15.55
2019-04-25T23:28:10.040Z,32.67
2019-04-25T23:31:00.859Z,15.65
2019-04-25T23:33:32.011Z,13.07
2019-04-25T23:36:03.187Z,16.47
2019-04-25T23:38:33.849Z,14.90
2019-04-25T23:41:05.900Z,14.70
2019-04-25T23:43:36.809Z,15.85
2019-04-25T23:46:08.244Z,12.77
2019-04-25T23:48:39.675Z,10.25
2019-04-25T23:51:11.333Z,15.30
2019-04-25T23:53:42.438Z,12.43
2019-04-25T23:56:13.526Z,11.22
2019-04-25T23:58:46.166Z,15.20
